createdAt,value
2024-05-09T00:01:20.148Z,19.02
2024-05-09T00:03:52.854Z,19.70
2024-05-09T00:06:23.361Z,19.75
2024-05-09T00:08:53.387Z,19.73
2024-05-09T00:11:23.617Z,20.65
2024-05-09T00:13:53.872Z,21.45
2024-05-09T00:16:23.992Z,20.70
2024-05-09T00:18:56.849Z,19.13
2024-05-09T00:21:26.972Z,20.83
2024-05-09T00:23:57.262Z,20.40
2024-05-09T00:26:27.587Z,20.92
2024-05-09T00:28:57.747Z,20.08
2024-05-09T00:31:28.265Z,19.80
2024-05-09T00:34:01.183Z,20.70
2024-05-09T00:36:31.518Z,20.65
2024-05-09T00:39:01.554Z,21.40
2024-05-09T00:41:31.716Z,21.42
2024-05-09T00:44:04.495Z,22.48
2024-05-09T00:46:34.747Z,22.13
2024-05-09T00:49:07.594Z,22.15
2024-05-09T00:51:37.691Z,22.25
2024-05-09T00:54:07.889Z,21.60
2024-05-09T00:56:38.611Z,22.92
2024-05-09T00:59:08.823Z,23.17
2024-05-09T01:01:39.242Z,22.63
2024-05-09T01:04:12.236Z,22.58
2024-05-09T01:06:42.429Z,23.05
2024-05-09T01:09:12.478Z,23.15
2024-05-09T01:11:43.697Z,21.63
2024-05-09T01:14:13.938Z,22.50
2024-05-09T01:16:45.364Z,23.90
2024-05-09T01:19:20.383Z,23.30
2024-05-09T01:21:50.554Z,22.85
2024-05-09T01:24:23.225Z,23.63
2024-05-09T01:26:53.775Z,23.35
2024-05-09T01:29:23.942Z,23.33
2024-05-09T01:31:54.404Z,23.38
2024-05-09T01:34:24.502Z,23.20
2024-05-09T01:36:54.587Z,23.10
2024-05-09T01:39:27.300Z,25.85
2024-05-09T01:41:57.513Z,25.17
2024-05-09T01:44:27.699Z,23.77
2024-05-09T01:46:57.849Z,25.45
2024-05-09T01:49:28.014Z,25.10
2024-05-09T01:51:58.144Z,25.90
2024-05-09T01:54:30.785Z,26.42
2024-05-09T01:57:00.864Z,26.60
2024-05-09T01:59:31.038Z,27.15
2024-05-09T02:02:01.549Z,26.45
2024-05-09T02:04:31.959Z,26.35
2024-05-09T02:07:02.079Z,25.67
2024-05-09T02:09:35.109Z,26.15
2024-05-09T02:12:05.704Z,26.88
2024-05-09T02:14:36.006Z,26.70
2024-05-09T02:17:06.274Z,27.35
2024-05-09T02:19:36.390Z,29.67
2024-05-09T02:22:06.515Z,29.05
2024-05-09T02:24:39.310Z,30.23
2024-05-09T02:27:09.346Z,28.70
2024-05-09T02:29:39.480Z,28.92
2024-05-09T02:32:09.743Z,30.23
2024-05-09T02:34:39.954Z,29.17
2024-05-09T02:37:09.991Z,30.27
2024-05-09T02:39:40.078Z,28.85
2024-05-09T02:42:10.123Z,30.70
2024-05-09T02:44:37.879Z,28.42
2024-05-09T02:47:08.357Z,30.05
2024-05-09T02:49:36.139Z,30.60
2024-05-09T02:52:06.328Z,30.13
2024-05-09T02:54:33.787Z,30.33
2024-05-09T02:57:06.564Z,30.70
2024-05-09T02:59:34.135Z,29.98
2024-05-09T03:02:04.366Z,31.98
2024-05-09T03:04:32.056Z,34.05
2024-05-09T03:07:02.198Z,34.20
2024-05-09T03:09:29.623Z,35.78
2024-05-09T03:11:59.827Z,33.65
2024-05-09T03:14:30.122Z,32.90
2024-05-09T03:17:00.292Z,32.50
2024-05-09T03:19:27.804Z,32.47
2024-05-09T03:21:57.912Z,33.75
2024-05-09T03:24:27.357Z,33.83
2024-05-09T03:26:57.416Z,33.00
2024-05-09T03:29:25.036Z,32.80
2024-05-09T03:31:57.800Z,35.70
2024-05-09T03:34:25.343Z,35.58
2024-05-09T03:36:55.409Z,33.55
2024-05-09T03:39:25.446Z,32.63
2024-05-09T03:41:58.222Z,33.67
2024-05-09T03:44:28.450Z,32.72
2024-05-09T03:47:01.177Z,32.63
2024-05-09T03:49:28.693Z,32.30
2024-05-09T03:51:58.762Z,32.00
2024-05-09T03:54:27.709Z,33.60
2024-05-09T03:56:57.769Z,32.53
2024-05-09T03:59:25.286Z,32.58
2024-05-09T04:01:55.498Z,34.10
2024-05-09T04:04:25.737Z,34.72
2024-05-09T04:06:55.813Z,33.70
2024-05-09T04:09:23.288Z,37.00
2024-05-09T04:11:53.552Z,33.83
2024-05-09T04:14:21.035Z,33.88
2024-05-09T04:16:51.230Z,32.88
2024-05-09T04:19:18.952Z,33.38
2024-05-09T04:21:51.868Z,33.35
2024-05-09T04:24:19.331Z,33.70
2024-05-09T04:26:49.375Z,33.60
2024-05-09T04:29:16.907Z,33.45
2024-05-09T04:31:47.631Z,32.47
2024-05-09T04:34:15.229Z,32.65
2024-05-09T04:36:45.329Z,32.60
2024-05-09T04:39:15.471Z,31.75
2024-05-09T04:41:45.527Z,30.55
2024-05-09T04:44:13.183Z,28.90
2024-05-09T04:46:43.262Z,28.58
2024-05-09T04:49:10.885Z,30.08
2024-05-09T04:51:41.024Z,29.00
2024-05-09T04:54:10.834Z,26.17
2024-05-09T04:56:48.847Z,26.63
2024-05-09T04:59:16.468Z,24.02
2024-05-09T05:01:46.731Z,21.98
2024-05-09T05:04:14.303Z,21.17
2024-05-09T05:06:44.506Z,20.95
2024-05-09T05:09:11.989Z,21.73
2024-05-09T05:11:42.327Z,19.88
2024-05-09T05:14:12.521Z,19.98
2024-05-09T05:16:42.598Z,19.92
2024-05-09T05:19:13.421Z,20.05
2024-05-09T05:21:45.131Z,19.40
2024-05-09T05:24:12.588Z,19.13
2024-05-09T05:26:42.683Z,16.90
2024-05-09T05:29:13.132Z,14.45
2024-05-09T05:31:43.399Z,14.30
2024-05-09T05:34:10.907Z,13.18
2024-05-09T05:36:41.069Z,11.63
2024-05-09T05:39:09.538Z,11.52
2024-05-09T05:41:39.632Z,10.50
2024-05-09T05:44:07.268Z,10.10
2024-05-09T05:46:40.049Z,9.85
2024-05-09T05:49:07.584Z,11.10
2024-05-09T05:51:37.717Z,10.32
2024-05-09T05:54:05.222Z,10.32
2024-05-09T05:56:35.338Z,10.68
2024-05-09T05:59:02.899Z,10.90
2024-05-09T06:01:33.036Z,11.25
2024-05-09T06:04:03.219Z,11.68
2024-05-09T06:06:33.287Z,13.25
2024-05-09T06:09:00.709Z,17.40
2024-05-09T06:11:30.849Z,18.40
2024-05-09T06:13:58.599Z,16.55
2024-05-09T06:16:28.654Z,16.50
2024-05-09T06:18:56.386Z,17.92
2024-05-09T06:21:29.275Z,17.45
2024-05-09T06:23:56.780Z,18.33
2024-05-09T06:26:26.992Z,18.27
2024-05-09T06:28:54.510Z,18.08
2024-05-09T06:31:24.592Z,17.52
2024-05-09T06:33:52.433Z,15.30
2024-05-09T06:36:22.574Z,16.48
2024-05-09T06:38:52.668Z,17.33
2024-05-09T06:41:22.795Z,18.63
2024-05-09T06:43:50.368Z,17.52
2024-05-09T06:46:20.728Z,17.23
2024-05-09T06:48:48.675Z,16.90
2024-05-09T06:51:19.292Z,15.60
2024-05-09T06:53:46.943Z,15.18
2024-05-09T06:56:20.043Z,14.57
2024-05-09T06:58:47.523Z,14.70
2024-05-09T07:01:17.707Z,12.80
2024-05-09T07:03:45.288Z,13.15
2024-05-09T07:06:15.520Z,14.60
2024-05-09T07:08:43.123Z,14.88
2024-05-09T07:11:13.250Z,14.32
2024-05-09T07:13:43.930Z,14.93
2024-05-09T07:16:13.968Z,14.20
2024-05-09T07:18:41.761Z,15.95
2024-05-09T07:21:12.105Z,14.90
2024-05-09T07:23:39.818Z,13.88
2024-05-09T07:26:10.136Z,15.23
2024-05-09T07:28:37.709Z,14.82
2024-05-09T07:31:10.856Z,14.55
2024-05-09T07:33:38.629Z,15.38
2024-05-09T07:36:08.882Z,15.48
2024-05-09T07:38:36.456Z,14.63
2024-05-09T07:41:06.758Z,13.93
2024-05-09T07:43:34.224Z,13.05
2024-05-09T07:47:03.934Z,13.00
2024-05-09T07:50:35.112Z,14.20
2024-05-09T07:53:14.463Z,12.70
2024-05-09T07:54:32.058Z,13.15
2024-05-09T07:57:02.442Z,12.02
2024-05-09T07:59:31.314Z,12.90
2024-05-09T08:02:02.735Z,12.57
2024-05-09T08:04:33.006Z,11.68
2024-05-09T08:07:03.320Z,12.52
2024-05-09T08:09:30.818Z,12.82
2024-05-09T08:12:00.881Z,12.27
2024-05-09T08:14:28.348Z,12.82
2024-05-09T08:16:58.487Z,12.38
2024-05-09T08:19:26.255Z,12.00
2024-05-09T08:21:59.070Z,12.50
2024-05-09T08:24:29.275Z,12.55
2024-05-09T08:26:56.729Z,12.40
2024-05-09T08:29:26.783Z,13.02
2024-05-09T08:31:56.845Z,12.65
2024-05-09T08:34:27.378Z,11.63
2024-05-09T08:36:59.684Z,12.43
2024-05-09T08:39:31.756Z,12.13
2024-05-09T08:41:59.208Z,12.60
2024-05-09T08:44:29.960Z,12.40
2024-05-09T08:46:57.747Z,12.25
2024-05-09T08:49:28.435Z,13.23
2024-05-09T08:51:58.671Z,12.52
2024-05-09T08:54:28.815Z,12.70
2024-05-09T08:56:57.175Z,12.13
2024-05-09T08:59:30.149Z,12.18
2024-05-09T09:01:58.573Z,11.88
2024-05-09T09:04:30.262Z,12.25
2024-05-09T09:07:03.712Z,11.75
2024-05-09T09:09:34.579Z,10.80
2024-05-09T09:12:02.141Z,11.57
2024-05-09T09:14:32.344Z,10.75
2024-05-09T09:16:59.787Z,11.40
2024-05-09T09:19:29.954Z,12.05
2024-05-09T09:22:00.112Z,10.63
2024-05-09T09:24:30.221Z,10.18
2024-05-09T09:26:58.612Z,10.30
2024-05-09T09:29:29.466Z,9.45
2024-05-09T09:32:00.002Z,8.93
2024-05-09T09:34:31.333Z,8.75
2024-05-09T09:37:04.338Z,7.90
2024-05-09T09:39:35.017Z,7.63
2024-05-09T09:42:02.964Z,7.47
2024-05-09T09:44:34.224Z,6.63
2024-05-09T09:47:03.401Z,6.90
2024-05-09T09:49:36.726Z,6.57
2024-05-09T09:52:09.856Z,6.00
2024-05-09T09:54:41.880Z,6.05
2024-05-09T09:57:09.435Z,6.70
2024-05-09T09:59:40.338Z,7.07
2024-05-09T10:02:08.056Z,6.53
2024-05-09T10:04:38.397Z,6.20
2024-05-09T10:07:10.290Z,6.35
2024-05-09T10:09:40.514Z,5.57
2024-05-09T10:12:11.298Z,5.90
2024-05-09T10:14:48.481Z,5.40
2024-05-09T10:17:16.085Z,5.97
2024-05-09T10:19:46.791Z,5.75
2024-05-09T10:22:27.166Z,5.60
2024-05-09T10:24:58.205Z,5.85
2024-05-09T10:27:29.175Z,5.63
2024-05-09T10:29:59.769Z,6.13
2024-05-09T10:32:27.956Z,5.30
2024-05-09T10:35:05.122Z,5.68
2024-05-09T10:37:35.726Z,4.82
2024-05-09T10:40:12.032Z,4.53
2024-05-09T10:42:45.345Z,5.10
2024-05-09T10:45:16.146Z,5.22
2024-05-09T10:47:43.953Z,4.68
2024-05-09T10:50:22.250Z,4.10
2024-05-09T10:52:58.526Z,3.30
2024-05-09T10:55:28.750Z,3.78
2024-05-09T10:57:56.313Z,3.83
2024-05-09T11:00:30.721Z,4.30
2024-05-09T11:03:03.234Z,4.13
2024-05-09T11:05:35.005Z,4.50
2024-05-09T11:08:05.615Z,4.63
2024-05-09T11:10:35.795Z,5.18
2024-05-09T11:13:03.417Z,4.72
2024-05-09T11:15:41.314Z,4.20
2024-05-09T11:18:09.106Z,4.35
2024-05-09T11:20:39.847Z,4.10
2024-05-09T11:23:10.099Z,4.50
2024-05-09T11:25:40.251Z,3.50
2024-05-09T11:28:08.173Z,3.10
2024-05-09T11:30:38.513Z,3.38
2024-05-09T11:33:06.415Z,3.90
2024-05-09T11:35:36.536Z,4.10
2024-05-09T11:38:04.115Z,3.42
2024-05-09T11:40:36.948Z,3.45
2024-05-09T11:43:04.492Z,3.58
2024-05-09T11:45:34.684Z,3.83
2024-05-09T11:48:02.418Z,3.40
2024-05-09T11:50:35.545Z,3.70
2024-05-09T11:53:03.914Z,3.70
2024-05-09T11:55:38.112Z,3.65
2024-05-09T11:58:06.050Z,3.30
2024-05-09T12:00:37.634Z,3.75
2024-05-09T12:03:06.181Z,3.30
2024-05-09T12:05:36.519Z,3.10
2024-05-09T12:08:05.651Z,3.30
2024-05-09T12:10:38.728Z,2.95
2024-05-09T12:13:07.359Z,3.45
2024-05-09T12:15:39.359Z,3.40
2024-05-09T12:18:10.654Z,3.38
2024-05-09T12:20:40.918Z,3.08
2024-05-09T12:23:10.276Z,3.15
2024-05-09T12:25:43.931Z,3.50
2024-05-09T12:28:11.752Z,3.03
2024-05-09T12:30:42.202Z,3.17
2024-05-09T12:33:11.367Z,2.90
2024-05-09T12:35:45.383Z,2.83
2024-05-09T12:38:15.048Z,2.70
2024-05-09T12:40:48.215Z,3.13
2024-05-09T12:43:15.804Z,2.90
2024-05-09T12:45:45.993Z,2.88
2024-05-09T12:48:13.715Z,3.00
2024-05-09T12:50:44.121Z,2.47
2024-05-09T12:53:11.675Z,3.00
2024-05-09T12:55:49.005Z,2.70
2024-05-09T12:58:26.753Z,2.40
2024-05-09T13:00:56.995Z,3.00
2024-05-09T13:03:24.627Z,3.03
2024-05-09T13:05:54.801Z,2.83
2024-05-09T13:08:22.385Z,3.60
2024-05-09T13:10:52.824Z,3.00
2024-05-09T13:13:20.385Z,2.70
2024-05-09T13:15:53.258Z,3.40
2024-05-09T13:18:20.804Z,3.00
2024-05-09T13:20:50.918Z,2.85
2024-05-09T13:23:20.266Z,2.47
2024-05-09T13:25:50.481Z,2.45
2024-05-09T13:28:18.732Z,2.97
2024-05-09T13:30:49.100Z,2.72
2024-05-09T13:33:19.357Z,2.33
2024-05-09T13:35:51.017Z,2.55
2024-05-09T13:38:20.173Z,2.17
2024-05-09T13:40:50.909Z,2.60
2024-05-09T13:43:18.884Z,2.40
2024-05-09T13:45:49.187Z,2.55
2024-05-09T13:48:19.894Z,2.42
2024-05-09T13:50:50.333Z,2.60
2024-05-09T13:53:17.846Z,2.85
2024-05-09T13:55:48.226Z,2.50
2024-05-09T13:58:15.993Z,2.45
2024-05-09T14:00:48.847Z,2.30
2024-05-09T14:03:20.817Z,2.30
2024-05-09T14:05:52.321Z,2.47
2024-05-09T14:08:21.954Z,2.47
2024-05-09T14:10:53.702Z,2.47
2024-05-09T14:13:21.398Z,2.30
2024-05-09T14:15:51.907Z,2.85
2024-05-09T14:18:22.255Z,2.53
2024-05-09T14:20:52.751Z,2.05
2024-05-09T14:23:20.214Z,2.90
2024-05-09T14:25:53.021Z,2.90
2024-05-09T14:28:21.094Z,2.83
2024-05-09T14:30:51.426Z,2.90
2024-05-09T14:33:28.563Z,2.60
2024-05-09T14:36:01.957Z,2.58
2024-05-09T14:38:30.366Z,2.60
2024-05-09T14:41:03.632Z,2.75
2024-05-09T14:43:32.524Z,2.65
2024-05-09T14:46:05.311Z,2.97
2024-05-09T14:48:33.206Z,2.50
2024-05-09T14:51:06.316Z,2.38
2024-05-09T14:53:33.899Z,2.80
2024-05-09T14:56:04.060Z,2.60
2024-05-09T14:58:31.846Z,2.30
2024-05-09T15:01:02.231Z,2.42
2024-05-09T15:03:30.083Z,2.60
2024-05-09T15:06:02.265Z,2.60
2024-05-09T15:08:34.804Z,2.78
2024-05-09T15:11:11.279Z,2.40
2024-05-09T15:13:42.103Z,2.50
2024-05-09T15:16:18.581Z,2.78
2024-05-09T15:18:46.487Z,2.45
2024-05-09T15:21:16.985Z,3.10
2024-05-09T15:23:49.672Z,2.67
2024-05-09T15:26:19.956Z,2.70
2024-05-09T15:28:52.026Z,2.88
2024-05-09T15:31:22.554Z,2.60
2024-05-09T15:33:52.800Z,2.70
2024-05-09T15:36:20.990Z,3.05
2024-05-09T15:38:54.674Z,2.70
2024-05-09T15:41:22.264Z,2.40
2024-05-09T15:43:52.480Z,2.20
2024-05-09T15:46:20.032Z,2.47
2024-05-09T15:48:50.366Z,2.47
2024-05-09T15:51:18.167Z,2.58
2024-05-09T15:53:48.236Z,2.92
2024-05-09T15:56:18.509Z,2.60
2024-05-09T15:58:49.111Z,2.53
2024-05-09T16:01:16.624Z,2.80
2024-05-09T16:03:47.353Z,2.47
2024-05-09T16:06:15.052Z,2.40
2024-05-09T16:08:45.283Z,2.78
2024-05-09T16:11:14.846Z,3.20
2024-05-09T16:13:47.784Z,2.78
2024-05-09T16:16:15.538Z,2.92
2024-05-09T16:18:45.716Z,2.83
2024-05-09T16:21:13.319Z,2.60
2024-05-09T16:23:43.682Z,2.80
2024-05-09T16:26:11.817Z,3.17
2024-05-09T16:28:42.396Z,2.58
2024-05-09T16:31:12.747Z,3.42
2024-05-09T16:33:43.038Z,4.13
2024-05-09T16:36:10.782Z,3.80
2024-05-09T16:38:42.984Z,3.42
2024-05-09T16:41:10.590Z,3.88
2024-05-09T16:43:40.767Z,3.63
2024-05-09T16:46:09.009Z,3.13
2024-05-09T16:48:45.779Z,3.08
2024-05-09T16:51:21.290Z,2.63
2024-05-09T16:53:51.354Z,2.65
2024-05-09T16:56:21.088Z,3.13
2024-05-09T16:58:51.226Z,2.83
2024-05-09T17:01:18.846Z,2.65
2024-05-09T17:03:52.521Z,2.80
2024-05-09T17:06:20.108Z,3.00
2024-05-09T17:08:50.192Z,2.88
2024-05-09T17:11:17.746Z,3.10
2024-05-09T17:13:48.355Z,3.10
2024-05-09T17:16:20.922Z,2.97
2024-05-09T17:18:54.146Z,2.83
2024-05-09T17:21:21.609Z,2.90
2024-05-09T17:23:54.319Z,3.17
2024-05-09T17:26:22.047Z,2.97
2024-05-09T17:28:52.098Z,3.10
2024-05-09T17:31:19.682Z,3.03
2024-05-09T17:33:50.127Z,2.80
2024-05-09T17:36:20.337Z,2.75
2024-05-09T17:39:00.671Z,2.95
2024-05-09T17:41:28.096Z,3.00
2024-05-09T17:43:58.218Z,3.08
2024-05-09T17:46:25.879Z,3.08
2024-05-09T17:48:58.810Z,3.28
2024-05-09T17:51:34.600Z,2.90
2024-05-09T17:54:05.184Z,3.20
2024-05-09T17:56:32.626Z,3.40
2024-05-09T17:59:02.663Z,3.50
2024-05-09T18:01:30.350Z,3.22
2024-05-09T18:04:00.724Z,3.60
2024-05-09T18:06:30.960Z,2.83
2024-05-09T18:09:01.007Z,3.00
2024-05-09T18:11:28.490Z,2.90
2024-05-09T18:13:58.999Z,3.13
2024-05-09T18:16:26.748Z,3.67
2024-05-09T18:18:57.597Z,3.45
2024-05-09T18:21:25.219Z,3.28
2024-05-09T18:24:00.139Z,3.47
2024-05-09T18:26:27.831Z,3.05
2024-05-09T18:28:58.312Z,3.17
2024-05-09T18:31:25.845Z,3.30
2024-05-09T18:33:56.134Z,3.38
2024-05-09T18:36:23.834Z,3.15
2024-05-09T18:38:53.946Z,2.88
2024-05-09T18:41:24.031Z,3.30
2024-05-09T18:43:55.162Z,3.30
2024-05-09T18:46:22.762Z,3.40
2024-05-09T18:48:53.283Z,3.22
2024-05-09T18:51:21.132Z,3.28
2024-05-09T18:53:52.399Z,3.20
2024-05-09T18:56:19.861Z,3.55
2024-05-09T18:58:52.575Z,3.20
2024-05-09T19:01:21.827Z,3.08
2024-05-09T19:03:52.201Z,3.13
2024-05-09T19:06:24.565Z,3.63
2024-05-09T19:08:55.642Z,3.03
2024-05-09T19:11:23.290Z,3.30
2024-05-09T19:13:56.262Z,3.30
2024-05-09T19:16:27.736Z,3.58
2024-05-09T19:18:58.119Z,3.42
2024-05-09T19:21:27.899Z,3.47
2024-05-09T19:23:58.065Z,3.50
2024-05-09T19:26:27.291Z,3.40
2024-05-09T19:29:00.441Z,3.20
2024-05-09T19:31:30.547Z,3.20
2024-05-09T19:34:05.427Z,2.90
2024-05-09T19:36:33.404Z,3.30
2024-05-09T19:39:03.507Z,2.97
2024-05-09T19:41:31.022Z,2.97
2024-05-09T19:44:03.919Z,2.88
2024-05-09T19:46:31.523Z,3.30
2024-05-09T19:49:01.867Z,3.20
2024-05-09T19:51:29.527Z,3.78
2024-05-09T19:54:00.350Z,3.28
2024-05-09T19:56:27.910Z,3.22
2024-05-09T19:59:00.056Z,3.20
2024-05-09T20:01:30.287Z,2.88
2024-05-09T20:04:00.653Z,3.22
2024-05-09T20:06:30.329Z,3.35
2024-05-09T20:09:00.437Z,3.03
2024-05-09T20:11:28.106Z,3.08
2024-05-09T20:13:59.333Z,3.40
2024-05-09T20:16:26.848Z,3.08
2024-05-09T20:19:00.005Z,3.28
2024-05-09T20:21:27.515Z,3.03
2024-05-09T20:23:57.900Z,3.22
2024-05-09T20:26:28.113Z,3.00
2024-05-09T20:29:00.940Z,3.30
2024-05-09T20:31:28.455Z,3.03
2024-05-09T20:34:01.429Z,3.00
2024-05-09T20:36:29.442Z,3.15
2024-05-09T20:39:05.067Z,3.20
2024-05-09T20:41:35.182Z,3.38
2024-05-09T20:44:06.557Z,3.05
2024-05-09T20:46:34.772Z,3.25
2024-05-09T20:49:07.646Z,2.97
2024-05-09T20:51:35.359Z,3.55
2024-05-09T20:54:05.594Z,3.70
2024-05-09T20:56:33.773Z,3.40
2024-05-09T20:59:03.930Z,2.90
2024-05-09T21:01:33.598Z,2.95
2024-05-09T21:04:04.400Z,3.17
2024-05-09T21:06:34.988Z,3.20
2024-05-09T21:09:05.083Z,3.35
2024-05-09T21:11:32.583Z,3.13
2024-05-09T21:14:02.686Z,3.55
2024-05-09T21:16:34.052Z,2.92
2024-05-09T21:19:04.385Z,3.20
2024-05-09T21:21:39.276Z,3.30
2024-05-09T21:24:09.668Z,3.50
2024-05-09T21:26:39.049Z,3.53
2024-05-09T21:29:09.058Z,3.53
2024-05-09T21:31:36.495Z,3.55
2024-05-09T21:34:06.681Z,3.60
2024-05-09T21:36:36.851Z,3.40
2024-05-09T21:39:07.026Z,3.28
2024-05-09T21:41:34.468Z,4.00
2024-05-09T21:44:04.526Z,3.42
2024-05-09T21:46:32.046Z,4.03
2024-05-09T21:49:02.211Z,3.80
2024-05-09T21:51:31.061Z,3.40
2024-05-09T21:54:03.738Z,3.72
2024-05-09T21:56:31.148Z,3.55
2024-05-09T21:59:01.642Z,3.70
2024-05-09T22:01:29.234Z,3.80
2024-05-09T22:03:59.447Z,3.53
2024-05-09T22:06:27.026Z,3.92
2024-05-09T22:08:57.082Z,3.83
2024-05-09T22:11:27.218Z,3.72
2024-05-09T22:13:57.261Z,3.60
2024-05-09T22:16:25.117Z,3.70
2024-05-09T22:18:55.403Z,3.78
2024-05-09T22:21:23.120Z,3.58
2024-05-09T22:23:53.147Z,3.60
2024-05-09T22:26:20.655Z,3.35
2024-05-09T22:28:53.343Z,3.42
2024-05-09T22:31:20.832Z,3.70
2024-05-09T22:33:51.141Z,3.63
2024-05-09T22:36:18.721Z,3.65
2024-05-09T22:38:48.841Z,4.60
2024-05-09T22:41:16.286Z,3.42
2024-05-09T22:43:48.439Z,3.50
2024-05-09T22:46:18.618Z,4.10
2024-05-09T22:48:51.631Z,3.78
2024-05-09T22:51:19.243Z,3.70
2024-05-09T22:53:49.288Z,3.60
2024-05-09T22:56:26.650Z,3.60
2024-05-09T22:58:56.772Z,3.40
2024-05-09T23:01:27.597Z,3.53
2024-05-09T23:03:57.818Z,3.85
2024-05-09T23:06:25.549Z,3.67
2024-05-09T23:08:55.684Z,4.30
2024-05-09T23:11:23.132Z,4.18
2024-05-09T23:13:53.189Z,3.80
2024-05-09T23:16:20.824Z,4.20
2024-05-09T23:18:53.790Z,3.88
2024-05-09T23:21:21.327Z,4.15
2024-05-09T23:23:51.398Z,3.97
2024-05-09T23:26:18.809Z,4.13
2024-05-09T23:28:48.919Z,4.22
2024-05-09T23:31:16.398Z,4.32
2024-05-09T23:33:48.606Z,4.75
2024-05-09T23:36:18.821Z,4.43
2024-05-09T23:38:48.870Z,4.60
2024-05-09T23:41:16.262Z,4.20
2024-05-09T23:43:46.521Z,4.47
2024-05-09T23:46:14.032Z,4.50
2024-05-09T23:48:44.190Z,4.75
2024-05-09T23:51:11.603Z,4.55
2024-05-09T23:53:47.060Z,4.68
2024-05-09T23:56:15.256Z,5.20
2024-05-09T23:58:48.180Z,5.10
